createdAt,value
2018-12-19T00:03:49.011Z,6
2018-12-19T00:13:58.467Z,9
2018-12-19T00:24:05.100Z,4
2018-12-19T00:34:13.118Z,3
2018-12-19T00:44:19.733Z,4
2018-12-19T00:54:25.816Z,6
2018-12-19T01:04:32.404Z,4
2018-12-19T01:14:39.969Z,5
2018-12-19T01:24:44.670Z,6
2018-12-19T04:17:54.934Z,11
2018-12-19T04:28:03.076Z,6
2018-12-19T04:38:09.572Z,6
2018-12-19T04:48:19.347Z,4
2018-12-19T04:58:27.300Z,5
2018-12-19T05:08:34.439Z,3
2018-12-19T05:18:41.294Z,4
2018-12-19T05:28:47.156Z,4
2018-12-19T05:38:55.702Z,3
2018-12-19T05:49:02.097Z,3
2018-12-19T05:59:11.626Z,5
2018-12-19T06:09:20.008Z,3
2018-12-19T06:19:26.678Z,5
2018-12-19T06:29:33.329Z,4
2018-12-19T06:39:42.435Z,2
2018-12-19T06:49:48.842Z,3
2018-12-19T06:59:59.837Z,3
2018-12-19T07:10:06.353Z,4
2018-12-19T07:11:18.499Z,3
2018-12-19T07:21:26.701Z,6
2018-12-19T07:31:35.122Z,5
2018-12-19T07:37:49.663Z,4
2018-12-19T07:47:58.728Z,5
2018-12-19T07:58:03.219Z,6
2018-12-19T08:08:10.677Z,6
2018-12-19T08:18:16.398Z,3
2018-12-19T08:28:24.201Z,3
2018-12-19T08:38:30.581Z,5
2018-12-19T08:46:49.115Z,3
2018-12-19T08:49:41.279Z,4
2018-12-19T08:59:46.450Z,3
2018-12-19T09:05:02.295Z,7
2018-12-19T09:15:10.779Z,4
2018-12-19T09:25:18.187Z,5
2018-12-19T09:35:28.360Z,4
2018-12-19T09:45:33.714Z,4
2018-12-19T09:49:49.232Z,3
2018-12-19T09:59:56.442Z,5
2018-12-19T10:10:04.637Z,5
2018-12-19T10:20:16.124Z,3
2018-12-19T10:30:23.648Z,5
2018-12-19T10:40:28.779Z,5
2018-12-19T10:50:35.127Z,4
2018-12-19T11:00:42.474Z,3
2018-12-19T11:10:48.874Z,6
2018-12-19T11:20:56.248Z,6
2018-12-19T11:31:05.877Z,6
2018-12-19T11:41:12.569Z,4
2018-12-19T11:51:20.823Z,4
2018-12-19T12:01:27.110Z,6
2018-12-19T12:11:33.779Z,7
2018-12-19T12:21:41.728Z,7
2018-12-19T12:31:50.014Z,6
2018-12-19T12:41:56.428Z,4
2018-12-19T12:52:03.887Z,5
2018-12-19T13:02:13.097Z,5
2018-12-19T13:08:30.530Z,14
2018-12-19T13:18:37.346Z,13
2018-12-19T13:28:47.001Z,7
2018-12-19T13:38:53.295Z,7
2018-12-19T13:49:00.740Z,6
2018-12-19T13:59:11.127Z,7
2018-12-19T14:09:19.727Z,7
2018-12-19T14:19:28.202Z,6
2018-12-19T14:29:36.623Z,6
2018-12-19T14:39:45.103Z,8
2018-12-19T14:49:57.470Z,8
2018-12-19T14:51:09.343Z,8
2018-12-19T15:01:09.132Z,6
2018-12-19T15:11:14.902Z,6
2018-12-19T15:21:21.186Z,5
2018-12-19T15:31:28.770Z,8
2018-12-19T15:41:35.647Z,8
2018-12-19T15:51:42.236Z,9
2018-12-19T16:01:50.661Z,10
2018-12-19T16:12:00.166Z,9
2018-12-19T16:22:06.354Z,12
2018-12-19T16:32:13.359Z,15
2018-12-19T16:37:59.439Z,9
2018-12-19T16:48:02.481Z,9
2018-12-19T16:58:11.688Z,10
2018-12-19T17:08:17.535Z,8
2018-12-19T17:13:31.971Z,8
2018-12-19T17:23:42.130Z,6
2018-12-19T17:33:50.099Z,11
2018-12-19T17:43:56.631Z,13
2018-12-19T17:54:04.359Z,18
2018-12-19T18:04:11.370Z,15
2018-12-19T18:14:19.133Z,13
2018-12-19T18:24:25.634Z,11
2018-12-19T18:34:33.492Z,13
2018-12-19T18:43:52.969Z,13
2018-12-19T18:53:59.794Z,9
2018-12-19T19:04:09.167Z,8
2018-12-19T19:14:18.225Z,11
2018-12-19T19:24:24.740Z,8
2018-12-19T19:34:35.150Z,11
2018-12-19T19:44:40.075Z,7
2018-12-19T19:51:56.279Z,7
2018-12-19T20:02:05.223Z,6
2018-12-19T20:12:13.707Z,7
2018-12-19T20:22:20.704Z,9
2018-12-19T20:32:27.349Z,7
2018-12-19T20:42:36.263Z,6
2018-12-19T20:52:46.508Z,7
2018-12-19T21:02:54.138Z,6
2018-12-19T21:13:02.102Z,6
2018-12-19T21:23:10.199Z,8
2018-12-19T21:33:16.174Z,8
2018-12-19T21:43:24.820Z,8
2018-12-19T21:53:32.930Z,8
2018-12-19T22:03:41.508Z,8
2018-12-19T22:13:48.097Z,9
2018-12-19T22:23:07.651Z,12
2018-12-19T22:33:15.485Z,9
2018-12-19T22:43:24.063Z,10
2018-12-19T22:53:34.172Z,8
2018-12-19T23:03:41.810Z,10
2018-12-19T23:13:48.928Z,11
2018-12-19T23:23:58.334Z,11
2018-12-19T23:34:08.216Z,10
2018-12-19T23:44:22.959Z,8
2018-12-19T23:45:04.218Z,9
2018-12-19T23:55:11.694Z,10
